sensor_id;sensor_type;location;lat;lon;timestamp;P1;durP1;ratioP1;P2;durP2;ratioP2
52894;SDS011;38759;53.396;6.722;2023-04-09T00:01:04;109.85;;;47.08;;
52894;SDS011;38759;53.396;6.722;2023-04-09T00:03:31;113.50;;;49.22;;
52894;SDS011;38759;53.396;6.722;2023-04-09T00:05:58;107.57;;;44.70;;
52894;SDS011;38759;53.396;6.722;2023-04-09T00:08:24;106.20;;;48.35;;
52894;SDS011;38759;53.396;6.722;2023-04-09T00:10:50;109.05;;;45.13;;
52894;SDS011;38759;53.396;6.722;2023-04-09T00:13:16;106.78;;;45.05;;
52894;SDS011;38759;53.396;6.722;2023-04-09T00:15:43;113.32;;;47.10;;
52894;SDS011;38759;53.396;6.722;2023-04-09T00:18:09;109.82;;;44.50;;
52894;SDS011;38759;53.396;6.722;2023-04-09T00:20:35;110.43;;;46.22;;
52894;SDS011;38759;53.396;6.722;2023-04-09T00:23:01;114.38;;;47.10;;
52894;SDS011;38759;53.396;6.722;2023-04-09T00:25:26;113.40;;;45.38;;
52894;SDS011;38759;53.396;6.722;2023-04-09T00:27:53;109.30;;;45.97;;
52894;SDS011;38759;53.396;6.722;2023-04-09T00:30:19;105.35;;;42.60;;
52894;SDS011;38759;53.396;6.722;2023-04-09T00:32:45;115.53;;;45.92;;
52894;SDS011;38759;53.396;6.722;2023-04-09T00:35:11;105.85;;;42.00;;
52894;SDS011;38759;53.396;6.722;2023-04-09T00:37:37;114.78;;;43.28;;
52894;SDS011;38759;53.396;6.722;2023-04-09T00:40:03;111.47;;;43.60;;
52894;SDS011;38759;53.396;6.722;2023-04-09T00:42:33;110.85;;;44.35;;
52894;SDS011;38759;53.396;6.722;2023-04-09T00:45:00;116.28;;;45.95;;
52894;SDS011;38759;53.396;6.722;2023-04-09T00:47:27;117.57;;;44.40;;
52894;SDS011;38759;53.396;6.722;2023-04-09T00:49:55;102.45;;;41.72;;
52894;SDS011;38759;53.396;6.722;2023-04-09T00:52:24;105.32;;;41.45;;
52894;SDS011;38759;53.396;6.722;2023-04-09T00:54:50;106.60;;;40.85;;
52894;SDS011;38759;53.396;6.722;2023-04-09T00:57:17;96.97;;;39.20;;
52894;SDS011;38759;53.396;6.722;2023-04-09T00:59:43;98.50;;;37.85;;
52894;SDS011;38759;53.396;6.722;2023-04-09T01:02:09;88.65;;;36.65;;
52894;SDS011;38759;53.396;6.722;2023-04-09T01:04:35;91.47;;;35.92;;
52894;SDS011;38759;53.396;6.722;2023-04-09T01:09:34;82.03;;;34.03;;
52894;SDS011;38759;53.396;6.722;2023-04-09T01:12:13;73.72;;;32.55;;
52894;SDS011;38759;53.396;6.722;2023-04-09T01:15:03;81.18;;;34.28;;
52894;SDS011;38759;53.396;6.722;2023-04-09T01:17:33;81.05;;;34.75;;
52894;SDS011;38759;53.396;6.722;2023-04-09T01:30:48;77.13;;;33.22;;
52894;SDS011;38759;53.396;6.722;2023-04-09T01:33:17;81.93;;;32.58;;
52894;SDS011;38759;53.396;6.722;2023-04-09T01:35:44;76.25;;;30.50;;
52894;SDS011;38759;53.396;6.722;2023-04-09T01:38:11;76.60;;;32.97;;
52894;SDS011;38759;53.396;6.722;2023-04-09T01:40:38;79.35;;;32.47;;
52894;SDS011;38759;53.396;6.722;2023-04-09T01:43:05;74.15;;;31.95;;
52894;SDS011;38759;53.396;6.722;2023-04-09T01:45:32;75.13;;;31.30;;
52894;SDS011;38759;53.396;6.722;2023-04-09T01:47:58;83.82;;;31.48;;
52894;SDS011;38759;53.396;6.722;2023-04-09T01:50:25;67.15;;;29.75;;
52894;SDS011;38759;53.396;6.722;2023-04-09T01:52:51;74.93;;;30.73;;
52894;SDS011;38759;53.396;6.722;2023-04-09T01:55:17;76.45;;;30.15;;
52894;SDS011;38759;53.396;6.722;2023-04-09T01:57:42;75.85;;;30.60;;
52894;SDS011;38759;53.396;6.722;2023-04-09T02:00:08;76.97;;;31.75;;
52894;SDS011;38759;53.396;6.722;2023-04-09T02:02:36;81.93;;;31.83;;
52894;SDS011;38759;53.396;6.722;2023-04-09T02:05:09;69.90;;;30.40;;
52894;SDS011;38759;53.396;6.722;2023-04-09T02:07:42;75.35;;;31.38;;
52894;SDS011;38759;53.396;6.722;2023-04-09T02:10:12;81.72;;;32.78;;
52894;SDS011;38759;53.396;6.722;2023-04-09T02:12:41;76.95;;;31.38;;
52894;SDS011;38759;53.396;6.722;2023-04-09T02:15:12;78.32;;;32.25;;
52894;SDS011;38759;53.396;6.722;2023-04-09T02:17:38;78.18;;;32.67;;
52894;SDS011;38759;53.396;6.722;2023-04-09T02:20:04;72.05;;;31.10;;
52894;SDS011;38759;53.396;6.722;2023-04-09T02:22:31;71.07;;;31.50;;
52894;SDS011;38759;53.396;6.722;2023-04-09T02:24:57;76.93;;;31.70;;
52894;SDS011;38759;53.396;6.722;2023-04-09T02:27:22;76.72;;;31.63;;
52894;SDS011;38759;53.396;6.722;2023-04-09T02:29:48;75.82;;;31.83;;
52894;SDS011;38759;53.396;6.722;2023-04-09T02:32:14;74.05;;;31.92;;
52894;SDS011;38759;53.396;6.722;2023-04-09T02:34:40;79.32;;;33.03;;
52894;SDS011;38759;53.396;6.722;2023-04-09T02:37:06;80.63;;;32.88;;
52894;SDS011;38759;53.396;6.722;2023-04-09T02:39:32;69.85;;;29.73;;
52894;SDS011;38759;53.396;6.722;2023-04-09T02:41:57;77.07;;;32.67;;
52894;SDS011;38759;53.396;6.722;2023-04-09T02:44:23;75.30;;;30.92;;
52894;SDS011;38759;53.396;6.722;2023-04-09T02:46:49;72.43;;;30.30;;
52894;SDS011;38759;53.396;6.722;2023-04-09T02:49:15;73.97;;;31.52;;
52894;SDS011;38759;53.396;6.722;2023-04-09T02:51:41;73.32;;;31.60;;
52894;SDS011;38759;53.396;6.722;2023-04-09T02:54:07;77.82;;;31.23;;
52894;SDS011;38759;53.396;6.722;2023-04-09T02:56:32;75.65;;;29.80;;
52894;SDS011;38759;53.396;6.722;2023-04-09T02:58:58;71.25;;;31.38;;
52894;SDS011;38759;53.396;6.722;2023-04-09T03:01:24;73.15;;;31.80;;
52894;SDS011;38759;53.396;6.722;2023-04-09T03:03:50;74.30;;;32.88;;
52894;SDS011;38759;53.396;6.722;2023-04-09T03:06:15;74.35;;;31.13;;
52894;SDS011;38759;53.396;6.722;2023-04-09T03:08:42;72.78;;;30.67;;
52894;SDS011;38759;53.396;6.722;2023-04-09T03:11:08;60.20;;;27.50;;
52894;SDS011;38759;53.396;6.722;2023-04-09T03:13:33;66.90;;;31.05;;
52894;SDS011;38759;53.396;6.722;2023-04-09T03:15:59;69.57;;;29.65;;
52894;SDS011;38759;53.396;6.722;2023-04-09T03:18:25;68.40;;;30.38;;
52894;SDS011;38759;53.396;6.722;2023-04-09T03:20:50;71.88;;;31.08;;
52894;SDS011;38759;53.396;6.722;2023-04-09T03:23:16;64.22;;;28.35;;
52894;SDS011;38759;53.396;6.722;2023-04-09T03:25:42;71.57;;;29.30;;
52894;SDS011;38759;53.396;6.722;2023-04-09T03:28:07;61.08;;;27.55;;
52894;SDS011;38759;53.396;6.722;2023-04-09T03:30:33;67.45;;;29.33;;
52894;SDS011;38759;53.396;6.722;2023-04-09T03:32:59;68.55;;;28.85;;
52894;SDS011;38759;53.396;6.722;2023-04-09T03:35:24;69.63;;;28.88;;
52894;SDS011;38759;53.396;6.722;2023-04-09T03:37:50;66.93;;;27.05;;
52894;SDS011;38759;53.396;6.722;2023-04-09T03:40:16;63.50;;;27.77;;
52894;SDS011;38759;53.396;6.722;2023-04-09T03:42:42;64.32;;;26.58;;
52894;SDS011;38759;53.396;6.722;2023-04-09T03:45:08;64.85;;;26.10;;
52894;SDS011;38759;53.396;6.722;2023-04-09T03:47:34;58.65;;;28.02;;
52894;SDS011;38759;53.396;6.722;2023-04-09T03:49:59;62.20;;;27.42;;
52894;SDS011;38759;53.396;6.722;2023-04-09T03:52:25;63.45;;;27.23;;
52894;SDS011;38759;53.396;6.722;2023-04-09T03:54:51;60.20;;;25.75;;
52894;SDS011;38759;53.396;6.722;2023-04-09T03:57:16;58.17;;;26.60;;
52894;SDS011;38759;53.396;6.722;2023-04-09T03:59:42;58.30;;;25.42;;
52894;SDS011;38759;53.396;6.722;2023-04-09T04:02:08;60.70;;;27.70;;
52894;SDS011;38759;53.396;6.722;2023-04-09T04:04:33;67.10;;;28.75;;
52894;SDS011;38759;53.396;6.722;2023-04-09T04:06:59;62.13;;;27.13;;
52894;SDS011;38759;53.396;6.722;2023-04-09T04:09:26;61.13;;;26.85;;
52894;SDS011;38759;53.396;6.722;2023-04-09T04:11:52;58.28;;;26.58;;
52894;SDS011;38759;53.396;6.722;2023-04-09T04:14:19;58.58;;;25.90;;
52894;SDS011;38759;53.396;6.722;2023-04-09T04:16:45;61.47;;;26.88;;
52894;SDS011;38759;53.396;6.722;2023-04-09T04:19:10;64.28;;;27.80;;
52894;SDS011;38759;53.396;6.722;2023-04-09T04:21:36;60.95;;;27.08;;
52894;SDS011;38759;53.396;6.722;2023-04-09T04:24:02;59.72;;;26.92;;
52894;SDS011;38759;53.396;6.722;2023-04-09T04:26:27;61.60;;;27.52;;
52894;SDS011;38759;53.396;6.722;2023-04-09T04:28:53;62.92;;;26.95;;
52894;SDS011;38759;53.396;6.722;2023-04-09T04:31:19;55.95;;;25.02;;
52894;SDS011;38759;53.396;6.722;2023-04-09T04:33:44;66.10;;;25.80;;
52894;SDS011;38759;53.396;6.722;2023-04-09T04:36:11;61.08;;;26.50;;
52894;SDS011;38759;53.396;6.722;2023-04-09T04:38:37;60.78;;;25.52;;
52894;SDS011;38759;53.396;6.722;2023-04-09T04:41:03;58.38;;;26.35;;
52894;SDS011;38759;53.396;6.722;2023-04-09T04:43:29;62.97;;;27.02;;
52894;SDS011;38759;53.396;6.722;2023-04-09T04:45:56;58.72;;;25.38;;
52894;SDS011;38759;53.396;6.722;2023-04-09T04:48:22;56.50;;;26.23;;
52894;SDS011;38759;53.396;6.722;2023-04-09T04:50:57;59.38;;;26.63;;
52894;SDS011;38759;53.396;6.722;2023-04-09T04:53:24;62.75;;;27.00;;
52894;SDS011;38759;53.396;6.722;2023-04-09T04:55:50;67.78;;;27.08;;
52894;SDS011;38759;53.396;6.722;2023-04-09T04:58:16;62.80;;;26.70;;
52894;SDS011;38759;53.396;6.722;2023-04-09T05:00:41;66.70;;;28.35;;
52894;SDS011;38759;53.396;6.722;2023-04-09T05:03:07;62.40;;;27.50;;
52894;SDS011;38759;53.396;6.722;2023-04-09T05:05:33;70.35;;;28.15;;
52894;SDS011;38759;53.396;6.722;2023-04-09T05:07:58;60.83;;;27.58;;
52894;SDS011;38759;53.396;6.722;2023-04-09T05:10:24;68.10;;;29.88;;
52894;SDS011;38759;53.396;6.722;2023-04-09T05:12:50;66.95;;;27.98;;
52894;SDS011;38759;53.396;6.722;2023-04-09T05:15:15;58.65;;;27.58;;
52894;SDS011;38759;53.396;6.722;2023-04-09T05:17:42;61.80;;;27.73;;
52894;SDS011;38759;53.396;6.722;2023-04-09T05:20:08;64.43;;;28.40;;
52894;SDS011;38759;53.396;6.722;2023-04-09T05:22:34;61.42;;;27.92;;
52894;SDS011;38759;53.396;6.722;2023-04-09T05:25:00;68.75;;;28.75;;
52894;SDS011;38759;53.396;6.722;2023-04-09T05:27:26;66.15;;;27.58;;
52894;SDS011;38759;53.396;6.722;2023-04-09T05:29:52;63.83;;;27.58;;
52894;SDS011;38759;53.396;6.722;2023-04-09T05:32:18;72.88;;;29.33;;
52894;SDS011;38759;53.396;6.722;2023-04-09T05:34:44;72.18;;;29.38;;
52894;SDS011;38759;53.396;6.722;2023-04-09T05:37:10;63.70;;;29.77;;
52894;SDS011;38759;53.396;6.722;2023-04-09T05:39:35;69.38;;;30.30;;
52894;SDS011;38759;53.396;6.722;2023-04-09T05:42:01;66.63;;;30.10;;
52894;SDS011;38759;53.396;6.722;2023-04-09T05:44:27;72.95;;;31.75;;
52894;SDS011;38759;53.396;6.722;2023-04-09T05:46:52;70.57;;;31.55;;
52894;SDS011;38759;53.396;6.722;2023-04-09T05:49:18;71.45;;;32.30;;
52894;SDS011;38759;53.396;6.722;2023-04-09T05:51:44;79.05;;;32.80;;
52894;SDS011;38759;53.396;6.722;2023-04-09T05:54:10;77.35;;;34.55;;
52894;SDS011;38759;53.396;6.722;2023-04-09T05:56:36;79.22;;;33.28;;
52894;SDS011;38759;53.396;6.722;2023-04-09T05:59:02;81.93;;;36.42;;
52894;SDS011;38759;53.396;6.722;2023-04-09T06:01:27;80.40;;;34.75;;
52894;SDS011;38759;53.396;6.722;2023-04-09T06:03:53;78.60;;;36.15;;
52894;SDS011;38759;53.396;6.722;2023-04-09T06:06:19;83.82;;;35.15;;
52894;SDS011;38759;53.396;6.722;2023-04-09T06:08:45;76.00;;;35.60;;
52894;SDS011;38759;53.396;6.722;2023-04-09T06:11:11;74.03;;;34.67;;
52894;SDS011;38759;53.396;6.722;2023-04-09T06:13:37;80.85;;;36.90;;
52894;SDS011;38759;53.396;6.722;2023-04-09T06:16:07;81.07;;;37.72;;
52894;SDS011;38759;53.396;6.722;2023-04-09T06:18:34;71.93;;;34.35;;
52894;SDS011;38759;53.396;6.722;2023-04-09T06:21:04;82.45;;;37.67;;
52894;SDS011;38759;53.396;6.722;2023-04-09T06:23:31;92.65;;;37.17;;
52894;SDS011;38759;53.396;6.722;2023-04-09T06:25:57;87.60;;;38.45;;
52894;SDS011;38759;53.396;6.722;2023-04-09T06:28:23;80.57;;;39.92;;
52894;SDS011;38759;53.396;6.722;2023-04-09T06:30:49;82.60;;;38.38;;
52894;SDS011;38759;53.396;6.722;2023-04-09T06:33:14;80.60;;;37.60;;
52894;SDS011;38759;53.396;6.722;2023-04-09T06:35:40;92.38;;;38.47;;
52894;SDS011;38759;53.396;6.722;2023-04-09T06:38:06;81.93;;;34.97;;
52894;SDS011;38759;53.396;6.722;2023-04-09T06:40:36;73.80;;;34.80;;
52894;SDS011;38759;53.396;6.722;2023-04-09T06:43:02;82.07;;;35.30;;
52894;SDS011;38759;53.396;6.722;2023-04-09T06:45:29;77.72;;;35.28;;
52894;SDS011;38759;53.396;6.722;2023-04-09T06:47:55;79.80;;;35.30;;
52894;SDS011;38759;53.396;6.722;2023-04-09T06:50:21;83.88;;;36.70;;
52894;SDS011;38759;53.396;6.722;2023-04-09T06:52:46;81.05;;;37.00;;
52894;SDS011;38759;53.396;6.722;2023-04-09T06:55:12;78.05;;;36.78;;
52894;SDS011;38759;53.396;6.722;2023-04-09T06:57:38;79.05;;;36.80;;
52894;SDS011;38759;53.396;6.722;2023-04-09T07:00:04;77.30;;;36.25;;
52894;SDS011;38759;53.396;6.722;2023-04-09T07:02:30;75.47;;;36.67;;
52894;SDS011;38759;53.396;6.722;2023-04-09T07:04:56;77.25;;;36.08;;
52894;SDS011;38759;53.396;6.722;2023-04-09T07:07:22;77.38;;;35.60;;
52894;SDS011;38759;53.396;6.722;2023-04-09T07:09:48;77.28;;;34.72;;
52894;SDS011;38759;53.396;6.722;2023-04-09T07:12:14;75.18;;;37.35;;
52894;SDS011;38759;53.396;6.722;2023-04-09T07:14:57;77.95;;;36.78;;
52894;SDS011;38759;53.396;6.722;2023-04-09T07:17:23;80.90;;;35.78;;
52894;SDS011;38759;53.396;6.722;2023-04-09T07:19:49;73.82;;;34.70;;
52894;SDS011;38759;53.396;6.722;2023-04-09T07:22:16;75.20;;;34.10;;
52894;SDS011;38759;53.396;6.722;2023-04-09T07:24:42;81.00;;;34.92;;
52894;SDS011;38759;53.396;6.722;2023-04-09T07:27:08;65.97;;;32.70;;
52894;SDS011;38759;53.396;6.722;2023-04-09T07:29:34;68.10;;;33.35;;
52894;SDS011;38759;53.396;6.722;2023-04-09T07:32:00;63.33;;;31.80;;
52894;SDS011;38759;53.396;6.722;2023-04-09T07:34:27;68.40;;;32.75;;
52894;SDS011;38759;53.396;6.722;2023-04-09T07:36:53;68.40;;;32.60;;
52894;SDS011;38759;53.396;6.722;2023-04-09T07:39:19;64.07;;;31.77;;
52894;SDS011;38759;53.396;6.722;2023-04-09T07:41:46;65.68;;;31.20;;
52894;SDS011;38759;53.396;6.722;2023-04-09T07:44:12;63.28;;;30.77;;
52894;SDS011;38759;53.396;6.722;2023-04-09T07:46:38;63.28;;;31.65;;
52894;SDS011;38759;53.396;6.722;2023-04-09T07:49:05;61.55;;;29.77;;
52894;SDS011;38759;53.396;6.722;2023-04-09T07:51:31;61.55;;;29.50;;
52894;SDS011;38759;53.396;6.722;2023-04-09T07:53:56;54.20;;;27.70;;
52894;SDS011;38759;53.396;6.722;2023-04-09T07:56:22;56.90;;;25.50;;
52894;SDS011;38759;53.396;6.722;2023-04-09T07:58:48;56.53;;;26.02;;
52894;SDS011;38759;53.396;6.722;2023-04-09T08:01:14;52.30;;;27.40;;
52894;SDS011;38759;53.396;6.722;2023-04-09T08:03:40;53.47;;;27.45;;
52894;SDS011;38759;53.396;6.722;2023-04-09T08:06:06;51.33;;;25.70;;
52894;SDS011;38759;53.396;6.722;2023-04-09T08:08:32;49.97;;;24.58;;
52894;SDS011;38759;53.396;6.722;2023-04-09T08:10:58;48.92;;;22.30;;
52894;SDS011;38759;53.396;6.722;2023-04-09T08:13:24;46.50;;;22.85;;
52894;SDS011;38759;53.396;6.722;2023-04-09T08:15:49;45.22;;;22.40;;
52894;SDS011;38759;53.396;6.722;2023-04-09T08:18:15;46.85;;;22.95;;
52894;SDS011;38759;53.396;6.722;2023-04-09T08:20:41;47.03;;;23.65;;
52894;SDS011;38759;53.396;6.722;2023-04-09T08:23:09;42.97;;;21.98;;
52894;SDS011;38759;53.396;6.722;2023-04-09T08:25:35;44.63;;;22.02;;
52894;SDS011;38759;53.396;6.722;2023-04-09T08:28:01;41.55;;;21.25;;
52894;SDS011;38759;53.396;6.722;2023-04-09T08:30:27;40.92;;;22.00;;
52894;SDS011;38759;53.396;6.722;2023-04-09T08:32:52;44.58;;;22.48;;
52894;SDS011;38759;53.396;6.722;2023-04-09T08:35:18;46.88;;;23.52;;
52894;SDS011;38759;53.396;6.722;2023-04-09T08:37:44;41.33;;;21.30;;
52894;SDS011;38759;53.396;6.722;2023-04-09T08:40:10;39.10;;;20.40;;
52894;SDS011;38759;53.396;6.722;2023-04-09T08:42:37;41.13;;;20.02;;
52894;SDS011;38759;53.396;6.722;2023-04-09T08:45:08;37.60;;;20.33;;
52894;SDS011;38759;53.396;6.722;2023-04-09T08:47:35;39.10;;;19.42;;
52894;SDS011;38759;53.396;6.722;2023-04-09T08:50:01;36.75;;;18.15;;
52894;SDS011;38759;53.396;6.722;2023-04-09T08:52:31;32.83;;;17.90;;
52894;SDS011;38759;53.396;6.722;2023-04-09T08:54:57;34.05;;;18.40;;
52894;SDS011;38759;53.396;6.722;2023-04-09T08:57:23;39.25;;;19.55;;
52894;SDS011;38759;53.396;6.722;2023-04-09T08:59:49;40.33;;;18.90;;
52894;SDS011;38759;53.396;6.722;2023-04-09T09:02:15;39.63;;;19.45;;
52894;SDS011;38759;53.396;6.722;2023-04-09T09:04:47;38.40;;;19.05;;
52894;SDS011;38759;53.396;6.722;2023-04-09T09:07:14;37.65;;;19.83;;
52894;SDS011;38759;53.396;6.722;2023-04-09T09:09:50;40.03;;;20.50;;
52894;SDS011;38759;53.396;6.722;2023-04-09T09:12:33;42.92;;;20.27;;
52894;SDS011;38759;53.396;6.722;2023-04-09T09:14:59;43.67;;;21.35;;
52894;SDS011;38759;53.396;6.722;2023-04-09T09:17:25;42.22;;;21.27;;
52894;SDS011;38759;53.396;6.722;2023-04-09T09:19:51;43.35;;;22.33;;
52894;SDS011;38759;53.396;6.722;2023-04-09T09:22:16;39.72;;;19.20;;
52894;SDS011;38759;53.396;6.722;2023-04-09T09:24:49;37.28;;;19.15;;
52894;SDS011;38759;53.396;6.722;2023-04-09T09:27:34;39.17;;;19.95;;
52894;SDS011;38759;53.396;6.722;2023-04-09T09:30:03;31.95;;;16.95;;
52894;SDS011;38759;53.396;6.722;2023-04-09T09:32:30;34.20;;;17.48;;
52894;SDS011;38759;53.396;6.722;2023-04-09T09:35:01;36.17;;;17.88;;
52894;SDS011;38759;53.396;6.722;2023-04-09T09:37:27;33.50;;;17.42;;
52894;SDS011;38759;53.396;6.722;2023-04-09T09:39:54;36.33;;;18.30;;
52894;SDS011;38759;53.396;6.722;2023-04-09T09:42:20;32.95;;;16.23;;
52894;SDS011;38759;53.396;6.722;2023-04-09T09:44:46;34.20;;;18.02;;
52894;SDS011;38759;53.396;6.722;2023-04-09T09:47:12;30.15;;;17.08;;
52894;SDS011;38759;53.396;6.722;2023-04-09T09:49:39;36.10;;;18.77;;
52894;SDS011;38759;53.396;6.722;2023-04-09T09:52:08;31.10;;;15.55;;
52894;SDS011;38759;53.396;6.722;2023-04-09T09:54:39;32.03;;;17.48;;
52894;SDS011;38759;53.396;6.722;2023-04-09T09:57:06;32.95;;;21.73;;
52894;SDS011;38759;53.396;6.722;2023-04-09T09:59:42;32.33;;;17.25;;
52894;SDS011;38759;53.396;6.722;2023-04-09T10:02:19;32.60;;;16.38;;
52894;SDS011;38759;53.396;6.722;2023-04-09T10:04:48;29.38;;;16.38;;
52894;SDS011;38759;53.396;6.722;2023-04-09T10:07:18;34.70;;;23.25;;
52894;SDS011;38759;53.396;6.722;2023-04-09T10:09:48;35.92;;;17.90;;
52894;SDS011;38759;53.396;6.722;2023-04-09T10:12:14;32.45;;;17.45;;
52894;SDS011;38759;53.396;6.722;2023-04-09T10:14:42;33.17;;;17.52;;
52894;SDS011;38759;53.396;6.722;2023-04-09T10:17:09;39.58;;;19.05;;
52894;SDS011;38759;53.396;6.722;2023-04-09T10:19:37;35.53;;;19.65;;
52894;SDS011;38759;53.396;6.722;2023-04-09T10:22:15;37.38;;;19.65;;
52894;SDS011;38759;53.396;6.722;2023-04-09T10:24:43;37.30;;;18.83;;
52894;SDS011;38759;53.396;6.722;2023-04-09T10:27:13;41.80;;;20.35;;
52894;SDS011;38759;53.396;6.722;2023-04-09T10:29:46;40.25;;;21.55;;
52894;SDS011;38759;53.396;6.722;2023-04-09T10:32:17;41.47;;;21.38;;
52894;SDS011;38759;53.396;6.722;2023-04-09T10:34:45;42.90;;;21.50;;
52894;SDS011;38759;53.396;6.722;2023-04-09T10:37:15;42.45;;;33.13;;
52894;SDS011;38759;53.396;6.722;2023-04-09T10:39:45;43.88;;;23.17;;
52894;SDS011;38759;53.396;6.722;2023-04-09T10:42:13;39.83;;;27.05;;
52894;SDS011;38759;53.396;6.722;2023-04-09T10:44:46;39.75;;;21.27;;
52894;SDS011;38759;53.396;6.722;2023-04-09T10:47:32;37.58;;;26.00;;
52894;SDS011;38759;53.396;6.722;2023-04-09T10:52:46;42.88;;;19.90;;
52894;SDS011;38759;53.396;6.722;2023-04-09T10:55:28;36.33;;;20.75;;
52894;SDS011;38759;53.396;6.722;2023-04-09T10:57:55;37.35;;;19.25;;
52894;SDS011;38759;53.396;6.722;2023-04-09T11:00:21;39.38;;;28.42;;
52894;SDS011;38759;53.396;6.722;2023-04-09T11:03:09;35.75;;;20.25;;
52894;SDS011;38759;53.396;6.722;2023-04-09T11:05:45;33.60;;;19.52;;
52894;SDS011;38759;53.396;6.722;2023-04-09T11:08:35;36.10;;;20.08;;
52894;SDS011;38759;53.396;6.722;2023-04-09T11:11:02;35.75;;;18.63;;
52894;SDS011;38759;53.396;6.722;2023-04-09T11:13:29;34.90;;;18.88;;
52894;SDS011;38759;53.396;6.722;2023-04-09T11:15:56;36.97;;;18.15;;
52894;SDS011;38759;53.396;6.722;2023-04-09T11:18:23;35.92;;;19.00;;
52894;SDS011;38759;53.396;6.722;2023-04-09T11:20:56;33.03;;;18.33;;
52894;SDS011;38759;53.396;6.722;2023-04-09T11:23:24;33.58;;;16.63;;
52894;SDS011;38759;53.396;6.722;2023-04-09T11:25:50;31.23;;;25.35;;
52894;SDS011;38759;53.396;6.722;2023-04-09T11:28:17;33.70;;;18.85;;
52894;SDS011;38759;53.396;6.722;2023-04-09T11:30:43;35.05;;;18.58;;
52894;SDS011;38759;53.396;6.722;2023-04-09T11:33:11;30.23;;;24.50;;
52894;SDS011;38759;53.396;6.722;2023-04-09T11:35:37;31.42;;;25.48;;
52894;SDS011;38759;53.396;6.722;2023-04-09T11:38:06;31.33;;;24.45;;
52894;SDS011;38759;53.396;6.722;2023-04-09T11:40:33;31.92;;;23.67;;
52894;SDS011;38759;53.396;6.722;2023-04-09T11:42:59;30.60;;;24.35;;
52894;SDS011;38759;53.396;6.722;2023-04-09T11:45:27;31.10;;;23.80;;
52894;SDS011;38759;53.396;6.722;2023-04-09T11:47:54;32.75;;;24.98;;
52894;SDS011;38759;53.396;6.722;2023-04-09T11:50:21;30.92;;;23.98;;
52894;SDS011;38759;53.396;6.722;2023-04-09T11:52:47;29.70;;;23.55;;
52894;SDS011;38759;53.396;6.722;2023-04-09T11:55:26;31.27;;;24.73;;
52894;SDS011;38759;53.396;6.722;2023-04-09T11:57:55;30.00;;;23.48;;
52894;SDS011;38759;53.396;6.722;2023-04-09T12:00:24;32.47;;;24.90;;
52894;SDS011;38759;53.396;6.722;2023-04-09T12:02:57;27.98;;;23.08;;
52894;SDS011;38759;53.396;6.722;2023-04-09T12:05:27;28.67;;;23.08;;
52894;SDS011;38759;53.396;6.722;2023-04-09T12:07:58;33.33;;;24.35;;
52894;SDS011;38759;53.396;6.722;2023-04-09T12:10:28;28.17;;;23.35;;
52894;SDS011;38759;53.396;6.722;2023-04-09T12:13:00;28.23;;;22.40;;
52894;SDS011;38759;53.396;6.722;2023-04-09T12:15:30;31.92;;;22.58;;
52894;SDS011;38759;53.396;6.722;2023-04-09T12:18:00;27.65;;;22.92;;
52894;SDS011;38759;53.396;6.722;2023-04-09T12:20:32;28.88;;;23.45;;
52894;SDS011;38759;53.396;6.722;2023-04-09T12:23:00;27.98;;;22.35;;
52894;SDS011;38759;53.396;6.722;2023-04-09T12:25:34;27.00;;;21.95;;
52894;SDS011;38759;53.396;6.722;2023-04-09T12:28:01;28.17;;;22.83;;
52894;SDS011;38759;53.396;6.722;2023-04-09T12:30:31;30.33;;;22.73;;
52894;SDS011;38759;53.396;6.722;2023-04-09T12:32:57;30.27;;;23.10;;
52894;SDS011;38759;53.396;6.722;2023-04-09T12:35:24;27.98;;;22.08;;
52894;SDS011;38759;53.396;6.722;2023-04-09T12:37:50;24.35;;;21.38;;
52894;SDS011;38759;53.396;6.722;2023-04-09T12:40:16;25.90;;;21.15;;
52894;SDS011;38759;53.396;6.722;2023-04-09T12:42:43;26.48;;;21.60;;
52894;SDS011;38759;53.396;6.722;2023-04-09T12:45:10;25.23;;;21.60;;
52894;SDS011;38759;53.396;6.722;2023-04-09T12:47:38;27.50;;;21.80;;
52894;SDS011;38759;53.396;6.722;2023-04-09T12:50:04;26.80;;;21.63;;
52894;SDS011;38759;53.396;6.722;2023-04-09T12:52:30;25.25;;;21.40;;
52894;SDS011;38759;53.396;6.722;2023-04-09T12:54:56;26.38;;;21.83;;
52894;SDS011;38759;53.396;6.722;2023-04-09T12:57:23;26.50;;;21.13;;
52894;SDS011;38759;53.396;6.722;2023-04-09T12:59:48;25.98;;;20.33;;
52894;SDS011;38759;53.396;6.722;2023-04-09T13:02:14;27.20;;;21.70;;
52894;SDS011;38759;53.396;6.722;2023-04-09T13:04:40;24.48;;;20.70;;
52894;SDS011;38759;53.396;6.722;2023-04-09T13:07:06;25.42;;;20.88;;
52894;SDS011;38759;53.396;6.722;2023-04-09T13:09:32;27.92;;;20.52;;
52894;SDS011;38759;53.396;6.722;2023-04-09T13:11:59;27.20;;;20.95;;
52894;SDS011;38759;53.396;6.722;2023-04-09T13:14:26;27.20;;;22.08;;
52894;SDS011;38759;53.396;6.722;2023-04-09T13:16:51;26.60;;;21.38;;
52894;SDS011;38759;53.396;6.722;2023-04-09T13:19:18;24.55;;;21.25;;
52894;SDS011;38759;53.396;6.722;2023-04-09T13:21:44;25.55;;;21.15;;
52894;SDS011;38759;53.396;6.722;2023-04-09T13:24:09;26.13;;;20.98;;
52894;SDS011;38759;53.396;6.722;2023-04-09T13:26:35;23.88;;;20.13;;
52894;SDS011;38759;53.396;6.722;2023-04-09T13:29:01;25.73;;;20.85;;
52894;SDS011;38759;53.396;6.722;2023-04-09T13:31:26;23.55;;;20.08;;
52894;SDS011;38759;53.396;6.722;2023-04-09T13:33:52;23.85;;;19.83;;
52894;SDS011;38759;53.396;6.722;2023-04-09T13:36:18;24.08;;;19.90;;
52894;SDS011;38759;53.396;6.722;2023-04-09T13:38:43;25.23;;;20.80;;
52894;SDS011;38759;53.396;6.722;2023-04-09T13:41:09;22.30;;;17.25;;
52894;SDS011;38759;53.396;6.722;2023-04-09T13:43:35;23.58;;;18.80;;
52894;SDS011;38759;53.396;6.722;2023-04-09T13:46:01;23.65;;;20.00;;
52894;SDS011;38759;53.396;6.722;2023-04-09T13:48:28;24.35;;;19.63;;
52894;SDS011;38759;53.396;6.722;2023-04-09T13:50:54;24.70;;;19.52;;
52894;SDS011;38759;53.396;6.722;2023-04-09T13:53:21;22.88;;;18.92;;
52894;SDS011;38759;53.396;6.722;2023-04-09T13:55:49;25.08;;;19.88;;
52894;SDS011;38759;53.396;6.722;2023-04-09T13:58:15;23.85;;;19.13;;
52894;SDS011;38759;53.396;6.722;2023-04-09T14:00:40;20.83;;;16.65;;
52894;SDS011;38759;53.396;6.722;2023-04-09T14:03:07;22.85;;;16.83;;
52894;SDS011;38759;53.396;6.722;2023-04-09T14:05:33;16.77;;;14.68;;
52894;SDS011;38759;53.396;6.722;2023-04-09T14:07:58;17.50;;;14.40;;
52894;SDS011;38759;53.396;6.722;2023-04-09T14:10:24;16.38;;;14.30;;
52894;SDS011;38759;53.396;6.722;2023-04-09T14:12:51;16.60;;;14.25;;
52894;SDS011;38759;53.396;6.722;2023-04-09T14:15:17;16.02;;;13.50;;
52894;SDS011;38759;53.396;6.722;2023-04-09T14:17:43;19.48;;;15.57;;
52894;SDS011;38759;53.396;6.722;2023-04-09T14:20:08;18.63;;;15.30;;
52894;SDS011;38759;53.396;6.722;2023-04-09T14:22:34;18.30;;;15.80;;
52894;SDS011;38759;53.396;6.722;2023-04-09T14:25:00;19.92;;;15.70;;
52894;SDS011;38759;53.396;6.722;2023-04-09T14:27:26;15.88;;;13.75;;
52894;SDS011;38759;53.396;6.722;2023-04-09T14:29:51;15.63;;;13.13;;
52894;SDS011;38759;53.396;6.722;2023-04-09T14:32:17;15.93;;;13.40;;
52894;SDS011;38759;53.396;6.722;2023-04-09T14:34:43;16.95;;;14.02;;
52894;SDS011;38759;53.396;6.722;2023-04-09T14:37:09;17.67;;;14.73;;